Time;durP1;ratioP1;P1;durP2;ratioP2;P2;SDS_P1;SDS_P2;PMS_P1;PMS_P2;Temp;Humidity;BMP_temperature;BMP_pressure;BME280_temperature;BME280_humidity;BME280_pressure;Samples;Min_cycle;Max_cycle;Signal;HPM_P1;HPM_P2
2023/11/10 00:00:14;;;;;;;4.85;1.10;;;8.90;99.90;;;9.22;73.47;98767.41;5102823;28;20052;-82
2023/11/10 00:02:44;;;;;;;6.88;1.45;;;9.00;99.90;;;9.22;73.28;98764.75;5107149;28;20047;-82
2023/11/10 00:05:13;;;;;;;4.70;1.33;;;8.90;99.90;;;9.15;73.88;98775.56;5105278;28;20040;-82
2023/11/10 00:07:40;;;;;;;5.05;1.00;;;8.90;99.90;;;9.21;73.97;98763.94;5106825;28;20049;-82
2023/11/10 00:10:09;;;;;;;3.45;1.25;;;8.90;99.90;;;9.15;73.78;98766.78;5104240;28;20040;-81
2023/11/10 00:12:36;;;;;;;4.50;1.38;;;8.90;99.90;;;9.19;73.59;98767.91;5106181;28;20044;-81
2023/11/10 00:15:08;;;;;;;5.88;1.30;;;8.90;99.90;;;9.22;73.57;98770.91;5102889;28;20032;-81
2023/11/10 00:17:36;;;;;;;4.97;1.20;;;9.00;99.90;;;9.23;73.59;98753.91;5107143;28;20062;-81
2023/11/10 00:20:04;;;;;;;4.18;1.10;;;8.90;99.90;;;9.25;73.39;98753.63;5092561;28;20051;-81
2023/11/10 00:22:33;;;;;;;4.80;1.40;;;8.90;99.90;;;9.29;73.31;98758.22;5086083;28;20052;-82
2023/11/10 00:25:01;;;;;;;4.90;1.02;;;9.00;99.90;;;9.32;73.39;98753.44;5084716;28;20048;-82
2023/11/10 00:27:29;;;;;;;3.28;1.02;;;8.90;99.90;;;9.33;73.43;98747.09;5084638;28;20059;-82
2023/11/10 00:29:56;;;;;;;3.20;1.02;;;9.00;99.90;;;9.33;73.76;98749.78;5107086;28;20040;-82
2023/11/10 00:32:25;;;;;;;6.63;1.30;;;9.00;99.90;;;9.27;73.20;98747.03;5102883;28;20048;-81
2023/11/10 00:34:53;;;;;;;4.32;1.23;;;9.00;99.90;;;9.25;73.59;98751.78;5088023;28;20127;-81
2023/11/10 00:37:22;;;;;;;6.78;1.13;;;8.90;99.90;;;9.25;73.39;98753.63;5083694;28;20048;-81
2023/11/10 00:39:53;;;;;;;4.40;1.25;;;8.90;99.90;;;9.31;73.67;98746.53;5075417;28;20056;-81
2023/11/10 00:42:20;;;;;;;4.82;1.08;;;9.00;99.90;;;9.36;73.44;98752.72;5103777;28;20044;-81
2023/11/10 00:44:48;;;;;;;5.75;1.10;;;9.10;99.90;;;9.41;73.76;98744.00;5120459;28;20504;-81
2023/11/10 00:47:15;;;;;;;4.68;1.20;;;9.10;99.90;;;9.45;73.99;98743.28;5105281;28;20058;-81
2023/11/10 00:49:43;;;;;;;7.50;1.55;;;9.10;99.90;;;9.36;73.60;98739.41;5067082;28;20479;-81
2023/11/10 00:52:10;;;;;;;6.28;1.15;;;9.00;99.90;;;9.35;73.64;98737.00;5084263;28;20045;-81
2023/11/10 00:54:38;;;;;;;3.45;1.05;;;9.00;99.90;;;9.37;73.63;98729.56;5084521;28;20055;-81
2023/11/10 00:57:07;;;;;;;4.22;1.27;;;9.00;99.90;;;9.41;73.75;98730.69;5081619;28;20047;-81
2023/11/10 00:59:35;;;;;;;4.10;1.20;;;9.00;99.90;;;9.44;73.84;98732.88;5101568;28;20060;-81
2023/11/10 01:02:02;;;;;;;5.25;1.20;;;9.10;99.90;;;9.47;73.45;98729.75;5101105;28;20104;-81
2023/11/10 01:04:30;;;;;;;5.72;1.38;;;9.10;99.90;;;9.35;73.50;98726.38;5099578;28;20066;-81
2023/11/10 01:06:57;;;;;;;5.13;1.27;;;9.00;99.90;;;9.43;74.16;98723.28;5121753;28;20040;-81
2023/11/10 01:09:26;;;;;;;4.13;1.20;;;9.10;99.90;;;9.47;74.46;98727.88;5096599;28;20093;-81
2023/11/10 01:11:54;;;;;;;4.78;1.10;;;9.10;99.90;;;9.50;74.24;98723.91;5090010;28;20047;-81
2023/11/10 01:14:23;;;;;;;5.90;1.33;;;9.10;99.90;;;9.45;74.02;98723.84;5087735;28;20045;-81
2023/11/10 01:16:51;;;;;;;6.93;1.65;;;9.10;99.90;;;9.46;73.83;98723.59;5084352;28;20053;-82
2023/11/10 01:19:18;;;;;;;7.65;1.92;;;9.10;99.90;;;9.48;74.26;98715.38;5089548;28;20047;-82
2023/11/10 01:21:47;;;;;;;8.90;1.58;;;9.10;99.90;;;9.40;74.12;98713.94;5105317;28;20052;-82
2023/11/10 01:24:16;;;;;;;5.63;1.38;;;9.10;99.90;;;9.42;74.24;98716.34;5101233;28;20138;-81
2023/11/10 01:26:43;;;;;;;4.40;1.13;;;9.00;99.90;;;9.42;74.26;98711.03;5104050;28;20512;-81
2023/11/10 01:29:11;;;;;;;5.57;1.50;;;9.00;99.90;;;9.37;74.50;98714.44;5103459;28;20407;-81
2023/11/10 01:31:41;;;;;;;4.80;1.33;;;9.00;99.90;;;9.41;74.48;98714.75;5104817;28;20052;-81
2023/11/10 01:34:08;;;;;;;4.43;1.20;;;9.10;99.90;;;9.44;74.32;98708.94;5101876;28;20071;-82
2023/11/10 01:36:35;;;;;;;6.10;1.77;;;9.10;99.90;;;9.42;74.49;98705.69;5102712;28;20040;-81
2023/11/10 01:39:05;;;;;;;6.57;1.50;;;9.10;99.90;;;9.44;74.50;98698.28;5103770;28;20070;-81
2023/11/10 01:41:37;;;;;;;7.07;1.30;;;9.10;99.90;;;9.46;74.68;98704.97;5119313;28;20040;-82
2023/11/10 01:44:06;;;;;;;4.47;1.17;;;9.10;99.90;;;9.47;74.51;98690.63;5117899;28;20070;-82
2023/11/10 01:46:45;;;;;;;4.15;1.17;;;9.20;99.90;;;9.42;74.85;98700.38;5101401;28;20435;-82
2023/11/10 01:49:15;;;;;;;6.18;1.60;;;9.10;99.90;;;9.40;74.66;98691.84;5086429;28;20048;-82
2023/11/10 01:51:46;;;;;;;6.15;1.48;;;9.10;99.90;;;9.39;74.52;98696.38;5082765;28;20048;-82
2023/11/10 01:54:18;;;;;;;7.68;1.45;;;9.10;99.90;;;9.41;74.82;98696.13;5083244;28;20079;-82
2023/11/10 01:56:47;;;;;;;4.60;1.05;;;9.10;99.90;;;9.44;74.94;98693.78;5082856;28;20044;-82
2023/11/10 01:59:16;;;;;;;6.00;1.40;;;9.10;99.90;;;9.46;74.95;98689.00;5100256;28;20101;-82
2023/11/10 02:01:46;;;;;;;4.93;1.45;;;9.10;99.90;;;9.40;74.69;98695.31;5102993;28;20044;-82
2023/11/10 02:04:16;;;;;;;5.43;1.50;;;9.10;99.90;;;9.38;74.48;98684.13;5067514;28;20102;-81
2023/11/10 02:06:45;;;;;;;4.50;1.50;;;9.10;99.90;;;9.39;74.58;98676.94;5114469;28;20036;-82
2023/11/10 02:09:13;;;;;;;5.40;1.42;;;9.10;99.90;;;9.36;74.18;98677.44;5102975;28;20047;-81
2023/11/10 02:11:41;;;;;;;6.32;1.60;;;9.10;99.90;;;9.39;74.35;98675.09;5093739;28;20064;-81
2023/11/10 02:14:10;;;;;;;6.05;1.42;;;9.10;99.90;;;9.44;74.74;98666.38;5082499;28;20048;-82
2023/11/10 02:16:39;;;;;;;5.50;1.23;;;9.10;99.90;;;9.46;74.62;98664.25;5083575;28;20059;-82
2023/11/10 02:19:14;;;;;;;5.40;1.15;;;9.20;99.90;;;9.45;74.30;98667.97;5081002;28;20067;-82
2023/11/10 02:21:42;;;;;;;3.80;1.30;;;9.20;99.90;;;9.45;74.60;98667.97;5082610;28;20110;-82
2023/11/10 02:24:13;;;;;;;6.50;1.48;;;9.10;99.90;;;9.40;73.86;98655.41;5103220;28;20101;-82
2023/11/10 02:26:43;;;;;;;5.65;1.30;;;9.10;99.90;;;9.30;74.74;98655.28;5100263;28;20518;-81
2023/11/10 02:29:12;;;;;;;4.80;1.33;;;9.00;99.90;;;9.34;75.12;98658.25;5101808;28;20044;-81
2023/11/10 02:31:40;;;;;;;7.07;1.23;;;9.10;99.90;;;9.23;74.85;98662.66;5102037;28;20074;-81
2023/11/10 02:34:07;;;;;;;4.20;1.20;;;9.00;99.90;;;9.30;75.15;98657.94;5082665;28;20068;-81
2023/11/10 02:36:37;;;;;;;6.72;1.33;;;9.00;99.90;;;9.37;75.10;98663.91;5103639;28;20052;-81
2023/11/10 02:39:05;;;;;;;5.60;1.40;;;9.10;99.90;;;9.41;75.10;98657.00;5099784;28;20036;-83
2023/11/10 02:41:36;;;;;;;5.38;1.50;;;9.10;99.90;;;9.38;74.80;98657.53;5101784;28;20036;-82
2023/11/10 02:44:06;;;;;;;5.88;1.38;;;9.10;99.90;;;9.35;74.33;98657.19;5084927;28;20078;-82
2023/11/10 02:46:34;;;;;;;8.32;1.48;;;9.10;99.90;;;9.27;74.49;98656.59;5100492;28;20097;-81
2023/11/10 02:49:03;;;;;;;7.88;1.60;;;9.00;99.90;;;9.28;74.35;98665.38;5093008;28;20087;-81
2023/11/10 02:51:30;;;;;;;7.55;1.30;;;9.10;99.90;;;9.27;74.27;98667.25;5081621;28;20488;-82
2023/11/10 02:53:58;;;;;;;5.90;1.30;;;9.00;99.90;;;9.32;74.71;98660.34;5094229;28;20048;-81
2023/11/10 02:56:26;;;;;;;4.45;1.23;;;9.00;99.90;;;9.36;74.78;98664.94;5111943;28;20044;-81
2023/11/10 02:58:53;;;;;;;5.72;1.40;;;9.10;99.90;;;9.24;74.41;98656.28;5068071;28;20067;-81
2023/11/10 03:01:26;;;;;;;7.40;1.40;;;9.10;99.90;;;9.31;75.04;98658.75;5081495;28;20036;-81
2023/11/10 03:03:53;;;;;;;5.00;1.30;;;9.10;99.90;;;9.35;74.93;98652.69;5103300;28;20139;-81
2023/11/10 03:06:21;;;;;;;7.15;1.50;;;9.10;99.90;;;9.37;74.82;98652.44;5085844;28;20101;-82
2023/11/10 03:08:49;;;;;;;5.22;1.20;;;9.10;99.90;;;9.35;74.17;98652.69;5115739;28;20044;-81
2023/11/10 03:11:17;;;;;;;3.97;1.27;;;9.10;99.90;;;9.35;74.54;98646.56;5102736;28;20047;-81
2023/11/10 03:13:46;;;;;;;4.55;1.40;;;9.00;99.90;;;9.39;74.59;98647.69;5103208;28;20044;-81
2023/11/10 03:16:13;;;;;;;6.07;1.50;;;9.10;99.90;;;9.41;74.92;98645.56;5099108;28;20044;-81
2023/11/10 03:18:42;;;;;;;10.63;2.13;;;9.20;99.90;;;9.32;74.28;98655.03;5107031;28;20040;-82
2023/11/10 03:21:16;;;;;;;7.78;1.73;;;9.10;99.90;;;9.28;74.60;98660.06;5088383;28;20442;-81
2023/11/10 03:23:44;;;;;;;6.07;1.30;;;9.00;99.90;;;9.32;74.68;98652.38;5102069;28;20055;-82
2023/11/10 03:26:12;;;;;;;7.75;1.60;;;9.10;99.90;;;9.29;74.42;98646.50;5085345;28;20032;-82
2023/11/10 03:28:39;;;;;;;5.93;1.55;;;9.10;99.90;;;9.27;74.89;98653.94;5085567;28;20514;-81
2023/11/10 03:31:08;;;;;;;6.38;1.70;;;9.10;99.90;;;9.28;74.82;98646.75;5101837;28;20080;-81
2023/11/10 03:33:36;;;;;;;12.25;1.65;;;9.00;99.90;;;9.28;74.88;98646.75;5085775;28;20058;-81
2023/11/10 03:36:08;;;;;;;5.40;1.20;;;9.10;99.90;;;9.26;74.73;98654.97;5101653;28;20048;-82
2023/11/10 03:38:35;;;;;;;8.23;2.00;;;9.00;99.90;;;9.29;74.87;98643.03;5085500;28;20044;-82
2023/11/10 03:41:03;;;;;;;7.82;1.80;;;9.00;99.90;;;9.28;74.94;98644.09;5085702;28;20044;-82
2023/11/10 03:43:31;;;;;;;4.13;1.33;;;9.00;99.90;;;9.25;74.63;98652.56;5096383;28;20044;-82
2023/11/10 03:45:59;;;;;;;6.55;1.60;;;9.00;99.90;;;9.20;74.41;98647.97;5105898;28;20032;-82
2023/11/10 03:48:27;;;;;;;5.78;1.40;;;9.00;99.90;;;9.14;74.18;98650.84;5105289;28;20043;-82
2023/11/10 03:50:54;;;;;;;5.50;1.58;;;9.00;99.90;;;9.18;74.69;98646.63;5107890;28;20055;-82
2023/11/10 03:53:23;;;;;;;4.03;1.40;;;8.90;99.90;;;9.24;74.75;98643.78;5107900;28;20036;-82
2023/11/10 03:55:50;;;;;;;5.40;1.50;;;9.10;99.90;;;9.23;74.71;98642.19;5097183;28;20094;-82
2023/11/10 03:58:18;;;;;;;9.70;1.50;;;9.00;99.90;;;9.20;74.56;98642.66;5071129;28;20064;-81
2023/11/10 04:00:46;;;;;;;7.30;1.50;;;9.00;99.90;;;9.10;74.65;98645.19;5085668;28;20420;-81
2023/11/10 04:03:14;;;;;;;5.05;1.75;;;9.00;99.90;;;9.16;75.02;98649.53;5102028;28;20411;-81
2023/11/10 04:05:43;;;;;;;5.60;1.38;;;9.00;99.90;;;9.18;74.61;98649.28;5088287;28;20055;-81
2023/11/10 04:08:11;;;;;;;6.40;1.27;;;8.90;99.90;;;9.22;74.98;98645.91;5073819;28;20079;-81
2023/11/10 04:10:40;;;;;;;5.63;1.60;;;9.00;99.90;;;9.21;74.97;98657.56;5093087;28;20047;-81
2023/11/10 04:13:07;;;;;;;6.35;1.33;;;9.00;99.90;;;9.08;75.09;98647.31;5089219;28;20071;-81
2023/11/10 04:15:35;;;;;;;7.50;1.58;;;8.90;99.90;;;9.07;75.57;98660.81;5084747;28;20298;-81
2023/11/10 04:18:02;;;;;;;4.00;1.15;;;9.00;99.90;;;9.11;75.83;98660.09;5093362;28;20042;-81
2023/11/10 04:20:30;;;;;;;8.93;1.58;;;9.00;99.90;;;9.10;75.49;98661.16;5106493;28;20048;-81
2023/11/10 04:22:57;;;;;;;8.48;1.40;;;8.90;99.90;;;9.06;75.72;98659.22;5104878;28;20036;-81
2023/11/10 04:25:25;;;;;;;7.85;1.73;;;8.90;99.90;;;9.09;75.60;98656.88;5105559;28;20427;-81
2023/11/10 04:27:55;;;;;;;7.18;1.42;;;8.90;99.90;;;9.07;75.95;98671.47;5103051;28;20051;-81
2023/11/10 04:30:22;;;;;;;6.22;1.60;;;8.90;99.90;;;9.11;76.04;98670.72;5092254;28;20068;-81
2023/11/10 04:32:50;;;;;;;3.90;1.35;;;9.00;99.90;;;9.09;75.90;98659.56;5101175;28;20040;-81
2023/11/10 04:35:18;;;;;;;5.68;1.33;;;8.90;99.90;;;9.14;76.30;98667.59;5102553;28;20040;-81
2023/11/10 04:37:45;;;;;;;5.70;1.48;;;8.90;99.90;;;9.19;76.03;98653.56;5084641;28;20045;-81
2023/11/10 04:40:15;;;;;;;5.90;1.40;;;9.00;99.90;;;9.25;76.07;98663.19;5085168;28;20515;-81
2023/11/10 04:42:43;;;;;;;6.00;1.40;;;9.00;99.90;;;9.23;75.84;98655.47;5085482;28;20045;-81
2023/11/10 04:45:12;;;;;;;7.32;1.58;;;9.00;99.90;;;9.24;75.70;98657.09;5086807;28;20087;-82
2023/11/10 04:47:40;;;;;;;5.32;1.33;;;9.00;99.90;;;9.28;75.87;98658.19;5085583;28;20496;-83
2023/11/10 04:50:09;;;;;;;7.90;1.65;;;9.00;99.90;;;9.10;75.93;98647.84;5084713;28;20041;-82
2023/11/10 04:52:37;;;;;;;5.25;1.55;;;9.00;99.90;;;9.14;76.23;98651.63;5099965;28;20443;-81
2023/11/10 04:55:07;;;;;;;4.75;1.40;;;9.00;99.90;;;9.13;76.30;98649.22;5104708;28;20070;-82
2023/11/10 04:57:35;;;;;;;6.28;1.60;;;9.00;99.90;;;9.13;76.24;98650.03;5106648;28;20032;-82
2023/11/10 05:00:03;;;;;;;7.25;1.95;;;9.00;99.90;;;9.20;76.68;98647.97;5098022;28;20090;-83
2023/11/10 05:02:32;;;;;;;8.50;1.73;;;9.00;99.90;;;9.19;76.22;98642.91;5083445;28;20140;-84
2023/11/10 05:05:00;;;;;;;7.50;1.50;;;9.00;99.90;;;9.19;76.35;98648.25;5073717;28;20127;-81
2023/11/10 05:07:27;;;;;;;9.15;1.50;;;9.00;99.90;;;9.24;76.34;98650.97;5104135;28;20066;-82
2023/11/10 05:09:55;;;;;;;9.52;1.80;;;9.00;99.90;;;9.16;75.59;98654.03;5101475;28;20044;-83
2023/11/10 05:12:22;;;;;;;7.82;1.77;;;9.00;99.90;;;9.18;76.31;98657.28;5065793;28;20102;-83
2023/11/10 05:14:50;;;;;;;3.22;1.50;;;9.00;99.90;;;9.11;76.45;98661.94;5063230;28;20120;-83
2023/11/10 05:17:17;;;;;;;6.40;1.50;;;9.00;99.90;;;9.15;76.43;98663.88;5081400;28;20059;-83
2023/11/10 05:19:46;;;;;;;4.55;1.50;;;9.00;99.90;;;9.18;75.86;98663.41;5092274;28;20051;-82
2023/11/10 05:22:14;;;;;;;7.57;1.65;;;9.00;99.90;;;9.18;76.24;98663.41;5100416;28;20103;-83
2023/11/10 05:24:43;;;;;;;6.40;1.60;;;9.00;99.90;;;9.21;76.21;98665.53;5099702;28;20066;-82
2023/11/10 05:27:11;;;;;;;5.65;1.42;;;9.00;99.90;;;9.23;76.10;98655.47;5100304;28;20044;-82
2023/11/10 05:29:38;;;;;;;5.70;1.48;;;9.00;99.90;;;9.28;76.10;98657.41;5082388;28;20063;-82
2023/11/10 05:32:06;;;;;;;6.85;1.50;;;9.10;99.90;;;9.31;75.80;98656.09;5078504;28;20504;-83
2023/11/10 05:34:37;;;;;;;7.47;1.52;;;9.10;99.90;;;9.29;75.89;98659.81;5081399;28;20068;-85
2023/11/10 05:37:10;;;;;;;6.03;1.23;;;9.10;99.90;;;9.34;75.63;98667.03;5078049;28;20051;-83
2023/11/10 05:39:37;;;;;;;8.00;1.48;;;9.10;99.90;;;9.26;74.92;98665.59;5079170;28;20458;-83
2023/11/10 05:42:06;;;;;;;7.15;1.88;;;9.10;99.90;;;9.13;75.22;98660.66;5075645;28;20081;-82
2023/11/10 05:44:33;;;;;;;4.05;1.30;;;9.00;99.90;;;9.14;75.27;98666.78;5099000;28;20072;-83
2023/11/10 05:47:01;;;;;;;5.90;1.60;;;9.00;99.90;;;9.16;75.45;98659.34;5088283;28;20044;-83
2023/11/10 05:49:28;;;;;;;4.97;1.30;;;9.00;99.90;;;9.16;75.37;98665.47;5117041;28;20112;-83
2023/11/10 05:51:56;;;;;;;3.67;1.20;;;9.00;99.90;;;9.14;75.47;98666.78;5080100;28;20077;-81
2023/11/10 05:54:25;;;;;;;4.68;1.42;;;9.00;99.90;;;9.19;75.34;98683.63;5097680;28;20052;-81
2023/11/10 05:56:54;;;;;;;4.57;1.25;;;9.00;99.90;;;9.20;74.80;98679.91;5064449;28;20044;-82
2023/11/10 05:59:23;;;;;;;5.78;1.58;;;9.10;99.90;;;9.16;74.57;98675.31;5100810;28;20100;-82
2023/11/10 06:01:50;;;;;;;5.30;1.40;;;9.00;99.90;;;9.14;74.94;98680.88;5115123;28;20044;-83
2023/11/10 06:04:18;;;;;;;5.70;1.30;;;9.00;99.90;;;9.15;75.03;98684.34;5093214;28;20048;-82
2023/11/10 06:06:46;;;;;;;8.50;1.30;;;9.00;99.90;;;9.15;74.99;98682.50;5101195;28;20044;-82
2023/11/10 06:09:16;;;;;;;4.18;1.30;;;9.00;99.90;;;9.17;74.69;98685.69;5099073;28;20515;-82
2023/11/10 06:11:45;;;;;;;5.10;1.50;;;9.00;99.90;;;9.19;74.53;98683.63;5099638;28;20044;-82
2023/11/10 06:14:13;;;;;;;5.07;1.25;;;9.10;99.90;;;9.12;73.81;98687.50;5082504;28;20573;-84
2023/11/10 06:16:41;;;;;;;4.28;1.20;;;9.00;99.90;;;9.18;74.46;98684.66;5099242;28;20040;-83
2023/11/10 06:19:09;;;;;;;8.55;1.60;;;8.90;99.90;;;9.07;73.64;98688.22;5082355;28;20127;-83
2023/11/10 06:21:37;;;;;;;6.43;1.40;;;9.00;99.90;;;9.13;73.96;98687.25;5093888;28;20048;-82
2023/11/10 06:24:06;;;;;;;4.65;1.20;;;9.00;99.90;;;9.12;73.87;98688.28;5114717;28;20032;-82
2023/11/10 06:26:35;;;;;;;6.70;1.60;;;9.10;99.90;;;9.09;73.47;98688.78;5048185;28;20056;-82
2023/11/10 06:29:05;;;;;;;4.68;1.20;;;9.00;99.90;;;9.01;73.88;98683.88;5115463;28;20044;-82
2023/11/10 06:31:32;;;;;;;9.45;1.40;;;9.00;99.90;;;9.13;74.07;98694.44;5101264;28;20051;-81
2023/11/10 06:34:01;;;;;;;4.15;1.33;;;9.00;99.90;;;9.15;74.11;98693.13;5100052;28;20060;-84
2023/11/10 06:36:29;;;;;;;7.93;1.83;;;9.00;99.90;;;9.10;73.60;98695.72;5097350;28;20055;-83
2023/11/10 06:38:57;;;;;;;7.70;1.30;;;9.00;99.90;;;9.08;74.25;98699.66;5089934;28;20040;-82
2023/11/10 06:41:26;;;;;;;5.10;1.40;;;9.00;99.90;;;9.13;74.39;98708.53;5097528;28;20044;-83
2023/11/10 06:43:53;;;;;;;7.60;1.30;;;9.00;99.90;;;9.16;73.96;98705.38;5086174;28;20052;-81
2023/11/10 06:46:26;;;;;;;4.40;1.20;;;9.00;99.90;;;9.22;74.31;98700.91;5075542;28;20072;-82
2023/11/10 06:48:55;;;;;;;3.15;1.00;;;9.00;99.90;;;9.26;73.89;98716.16;5102821;28;20075;-82
2023/11/10 06:51:23;;;;;;;4.82;1.38;;;9.10;99.90;;;9.20;72.97;98717.13;5091163;28;20044;-81
2023/11/10 06:53:50;;;;;;;4.10;1.30;;;9.10;99.90;;;9.14;74.00;98718.13;5082732;28;20075;-82
2023/11/10 06:56:18;;;;;;;11.88;1.92;;;9.10;99.90;;;9.11;73.49;98726.56;5065710;28;20044;-82
2023/11/10 06:58:46;;;;;;;5.13;1.33;;;9.00;99.90;;;9.13;73.63;98732.47;5092056;28;20040;-82
2023/11/10 07:01:14;;;;;;;5.38;1.58;;;9.00;99.90;;;9.12;74.14;98733.50;5109890;28;20044;-81
2023/11/10 07:03:43;;;;;;;9.10;1.73;;;9.00;99.90;;;9.15;73.78;98726.91;5090911;28;20047;-82
2023/11/10 07:06:11;;;;;;;3.88;1.35;;;9.00;99.90;;;9.18;74.15;98729.88;5102510;28;20067;-82
2023/11/10 07:08:39;;;;;;;6.97;1.60;;;9.00;99.90;;;9.22;74.54;98731.00;5086139;28;20047;-82
2023/11/10 07:11:07;;;;;;;9.52;1.73;;;9.00;99.90;;;9.13;73.87;98729.81;5103133;28;20048;-81
2023/11/10 07:13:37;;;;;;;9.80;1.30;;;9.10;99.90;;;9.16;74.31;98734.63;5065062;28;20146;-81
2023/11/10 07:16:06;;;;;;;11.10;1.63;;;9.00;99.90;;;9.22;74.07;98727.53;5083246;28;20049;-81
2023/11/10 07:18:34;;;;;;;10.35;1.85;;;9.00;99.90;;;9.25;74.26;98737.69;5078961;28;20045;-82
2023/11/10 07:21:06;;;;;;;6.03;1.30;;;9.10;99.90;;;9.30;73.82;98737.75;5101339;28;20056;-82
2023/11/10 07:23:34;;;;;;;4.57;1.30;;;9.10;99.90;;;9.32;73.72;98734.84;5100302;28;20052;-82
2023/11/10 07:26:02;;;;;;;5.65;1.20;;;9.10;99.90;;;9.20;73.26;98746.38;5067554;28;20083;-81
2023/11/10 07:28:30;;;;;;;6.85;1.20;;;9.10;99.90;;;9.21;73.53;98742.69;5092445;28;20426;-81
2023/11/10 07:30:58;;;;;;;6.80;1.45;;;9.10;99.90;;;9.27;73.69;98744.38;5104948;28;20491;-81
2023/11/10 07:33:26;;;;;;;7.40;1.20;;;9.10;99.90;;;9.32;73.53;98737.50;5086656;28;20048;-82
2023/11/10 07:35:54;;;;;;;6.03;1.30;;;9.10;99.90;;;9.27;72.73;98747.03;5098998;28;20514;-81
2023/11/10 07:38:23;;;;;;;5.40;1.33;;;9.10;99.90;;;9.32;72.96;98751.63;5050758;28;20049;-81
2023/11/10 07:40:51;;;;;;;7.68;1.38;;;9.10;99.90;;;9.36;73.51;98744.75;5052895;28;20033;-81
2023/11/10 07:43:19;;;;;;;6.18;1.30;;;9.20;99.90;;;9.36;73.06;98743.94;5084319;28;20053;-81
2023/11/10 07:45:47;;;;;;;6.70;1.50;;;9.20;99.90;;;9.32;73.70;98748.13;5085939;28;20052;-81
2023/11/10 07:48:15;;;;;;;5.22;1.33;;;9.20;99.90;;;9.36;73.05;98736.75;5084869;28;20049;-82
2023/11/10 07:50:43;;;;;;;7.10;1.30;;;9.20;99.90;;;9.28;72.16;98735.34;5100829;28;20036;-82
2023/11/10 07:53:12;;;;;;;4.30;1.17;;;9.20;99.90;;;9.29;72.73;98731.63;5089314;28;20040;-82
2023/11/10 07:55:43;;;;;;;5.45;1.30;;;9.20;99.90;;;9.37;72.85;98729.56;5107688;28;20047;-81
2023/11/10 07:58:10;;;;;;;7.05;1.80;;;9.20;99.90;;;9.33;72.30;98741.78;5108221;28;20089;-81
2023/11/10 08:00:37;;;;;;;4.03;1.30;;;9.20;99.90;;;9.28;72.10;98740.66;5103173;28;20048;-82
2023/11/10 08:03:05;;;;;;;7.45;1.52;;;9.20;99.90;;;9.25;71.42;98733.16;5097749;28;20041;-82
2023/11/10 08:05:31;;;;;;;5.55;1.42;;;9.20;99.90;;;9.11;71.56;98731.91;5086823;28;20503;-82
2023/11/10 08:08:02;;;;;;;3.30;1.40;;;9.10;99.90;;;9.06;71.92;98733.69;5094850;28;20433;-82
2023/11/10 08:10:30;;;;;;;8.03;1.57;;;9.10;99.90;;;9.08;72.10;98737.72;5108012;28;20060;-82
2023/11/10 08:12:59;;;;;;;8.43;1.48;;;9.10;99.90;;;9.03;72.34;98727.00;5088928;28;20048;-82
2023/11/10 08:15:26;;;;;;;6.57;1.40;;;9.10;99.90;;;9.10;72.64;98734.81;5090747;28;20044;-82
2023/11/10 08:17:55;;;;;;;8.25;1.67;;;9.10;99.90;;;9.11;71.75;98739.88;5091789;28;20044;-82
2023/11/10 08:20:26;;;;;;;6.03;1.25;;;9.20;99.90;;;9.13;71.62;98743.13;5109073;28;20048;-82
2023/11/10 08:22:54;;;;;;;7.90;1.25;;;9.20;99.90;;;9.07;70.96;98743.25;5109771;28;20048;-82
2023/11/10 08:25:21;;;;;;;10.07;1.23;;;9.20;99.90;;;9.11;71.79;98734.56;5106883;28;20044;-82
2023/11/10 08:27:49;;;;;;;4.38;1.23;;;9.20;99.90;;;9.08;71.29;98734.22;5110260;28;20052;-82
2023/11/10 08:30:19;;;;;;;6.13;1.38;;;9.20;99.90;;;9.17;71.83;98735.44;5109440;28;20028;-82
2023/11/10 08:32:46;;;;;;;5.88;1.50;;;9.30;99.90;;;9.17;71.88;98735.44;5110727;28;20046;-82
2023/11/10 08:35:15;;;;;;;7.60;1.38;;;9.30;99.90;;;9.17;72.27;98733.56;5124402;28;20082;-82
2023/11/10 08:37:42;;;;;;;4.80;1.02;;;9.30;99.90;;;9.26;71.90;98737.41;5110327;28;20039;-82
2023/11/10 08:40:11;;;;;;;5.70;1.30;;;9.40;99.90;;;9.29;71.33;98723.66;5095908;28;20157;-81
2023/11/10 08:42:41;;;;;;;9.13;1.40;;;9.40;99.90;;;9.37;71.86;98726.91;5099010;28;20048;-82
2023/11/10 08:45:11;;;;;;;6.55;1.23;;;9.40;99.90;;;9.42;71.91;98721.66;5109099;28;20048;-81
2023/11/10 08:47:41;;;;;;;5.85;1.50;;;9.50;99.90;;;9.42;71.41;98727.81;5109627;28;20119;-82
2023/11/10 08:50:11;;;;;;;6.25;1.35;;;9.50;99.90;;;9.39;70.57;98722.16;5074787;28;20071;-82
2023/11/10 08:52:41;;;;;;;9.00;1.70;;;9.50;99.90;;;9.38;71.43;98729.34;5109178;28;20052;-82
2023/11/10 08:55:11;;;;;;;7.00;1.45;;;9.60;99.90;;;9.43;70.15;98731.28;5109659;28;20036;-81
2023/11/10 08:57:39;;;;;;;6.50;1.52;;;9.60;99.90;;;9.40;70.68;98734.41;5091146;28;20447;-81
2023/11/10 09:00:11;;;;;;;11.15;1.83;;;9.60;99.90;;;9.45;70.94;98729.97;5111302;28;20056;-81
2023/11/10 09:02:41;;;;;;;9.05;1.63;;;9.60;99.90;;;9.58;71.46;98730.66;5090984;28;20052;-81
2023/11/10 09:05:10;;;;;;;12.10;1.98;;;9.70;99.90;;;9.60;70.53;98734.66;5107537;28;20047;-81
2023/11/10 09:07:38;;;;;;;5.70;1.23;;;9.70;99.90;;;9.55;70.06;98726.63;5105962;28;20107;-81
2023/11/10 09:10:07;;;;;;;9.80;1.63;;;9.70;99.90;;;9.52;70.79;98716.50;5099299;28;20048;-82
2023/11/10 09:12:34;;;;;;;9.65;1.92;;;9.70;99.90;;;9.56;69.94;98720.25;5106332;28;20103;-81
2023/11/10 09:15:04;;;;;;;7.47;1.60;;;9.80;99.90;;;9.64;71.10;98714.50;5107318;28;20050;-81
2023/11/10 09:17:32;;;;;;;7.60;1.48;;;9.80;99.90;;;9.63;70.78;98710.22;5106123;28;20449;-81
2023/11/10 09:20:01;;;;;;;6.05;1.30;;;9.90;99.90;;;9.69;70.71;98703.91;5068707;28;20045;-82
2023/11/10 09:22:29;;;;;;;13.30;1.63;;;9.90;99.90;;;9.66;69.36;98712.41;5106319;28;20052;-81
2023/11/10 09:24:56;;;;;;;5.85;1.20;;;9.90;99.90;;;9.66;69.25;98709.75;5105755;28;20392;-81
2023/11/10 09:27:24;;;;;;;8.32;1.83;;;9.90;99.90;;;9.63;69.64;98717.41;5107465;28;20040;-84
2023/11/10 09:29:52;;;;;;;8.90;1.73;;;9.90;99.90;;;9.66;69.65;98712.41;5114161;27;20044;-83
2023/11/10 09:32:19;;;;;;;9.63;1.75;;;9.90;99.90;;;9.76;70.35;98711.69;5104061;28;20062;-82
2023/11/10 09:34:47;;;;;;;8.07;1.50;;;10.00;99.90;;;9.78;70.14;98710.41;5103421;28;20102;-82
2023/11/10 09:37:16;;;;;;;5.70;1.10;;;10.00;99.90;;;9.80;69.60;98712.81;5100550;28;20048;-82
2023/11/10 09:39:46;;;;;;;6.53;1.75;;;10.00;99.90;;;9.84;69.24;98713.94;5101997;28;20088;-81
2023/11/10 09:42:14;;;;;;;6.90;1.30;;;10.10;99.90;;;9.90;69.95;98712.91;5102365;28;20036;-82
2023/11/10 09:44:52;;;;;;;5.15;1.50;;;10.10;99.90;;;9.96;69.67;98719.13;5100391;28;20507;-82
2023/11/10 09:47:22;;;;;;;6.30;1.63;;;10.10;99.90;;;10.05;70.61;98720.25;5093736;28;20044;-82
2023/11/10 09:49:50;;;;;;;5.10;1.38;;;10.20;99.90;;;10.06;69.01;98720.03;5067028;28;20048;-82
2023/11/10 09:52:22;;;;;;;5.07;1.35;;;10.20;99.90;;;9.95;68.31;98720.16;5081919;28;20096;-82
2023/11/10 09:54:54;;;;;;;9.13;1.30;;;10.20;99.90;;;10.02;69.30;98710.13;5080827;28;20057;-82
2023/11/10 09:57:21;;;;;;;;;;;10.20;99.90;;;9.96;68.02;98708.47;5066417;28;20127;-82
2023/11/10 09:59:50;;;;;;;9.05;1.67;;;10.10;99.90;;;9.96;68.94;98717.28;5094388;28;19927;-83
2023/11/10 10:02:18;;;;;;;9.68;1.60;;;10.10;99.90;;;10.02;68.97;98710.94;5095325;28;20499;-82
2023/11/10 10:04:45;;;;;;;8.95;2.17;;;10.20;99.90;;;9.96;67.06;98706.63;5092657;28;20064;-82
2023/11/10 10:07:14;;;;;;;7.57;1.63;;;10.20;99.90;;;9.93;67.53;98708.97;5082832;28;20079;-83
2023/11/10 10:09:45;;;;;;;5.65;1.20;;;10.10;99.90;;;9.94;67.61;98707.91;5094982;28;20044;-82
2023/11/10 10:12:14;;;;;;;7.65;1.40;;;10.10;99.90;;;9.99;68.14;98705.28;5100936;28;20048;-82
2023/11/10 10:14:42;;;;;;;11.80;1.50;;;10.10;99.90;;;10.00;67.01;98720.22;5088564;28;20056;-82
2023/11/10 10:17:10;;;;;;;5.55;1.60;;;10.10;99.90;;;9.94;67.79;98711.38;5086449;28;20048;-82
2023/11/10 10:19:38;;;;;;;8.55;2.22;;;10.10;99.90;;;9.95;67.97;98712.16;5084342;28;20048;-83
2023/11/10 10:22:07;;;;;;;6.88;1.38;;;10.10;99.90;;;9.96;67.92;98708.47;5101058;28;20051;-82
2023/11/10 10:24:36;;;;;;;7.75;1.48;;;10.10;99.90;;;9.93;67.61;98701.78;5083626;28;20070;-83
2023/11/10 10:27:07;;;;;;;3.97;1.40;;;10.10;99.90;;;9.91;67.17;98684.47;5093729;28;20044;-83
2023/11/10 10:29:37;;;;;;;7.05;1.48;;;10.10;99.90;;;10.00;68.01;98686.44;5084288;28;20057;-83
2023/11/10 10:32:06;;;;;;;5.55;1.65;;;10.10;99.90;;;10.11;69.40;98671.34;5084053;28;20044;-83
2023/11/10 10:34:33;;;;;;;7.40;1.67;;;10.20;99.90;;;10.09;67.60;98670.78;5090928;28;20050;-83
2023/11/10 10:37:04;;;;;;;14.02;2.25;;;10.20;99.90;;;10.07;67.01;98662.25;5104559;28;20048;-83